Time;durP1;ratioP1;P1;durP2;ratioP2;P2;SDS_P1;SDS_P2;PMS_P1;PMS_P2;Temp;Humidity;BMP_temperature;BMP_pressure;BME280_temperature;BME280_humidity;BME280_pressure;Samples;Min_cycle;Max_cycle;Signal;HPM_P1;HPM_P2
2023/04/17 00:00:42;;;;;;;45.10;16.37;;;7.90;99.90;;;;;;5076134;28;20097;-62
2023/04/17 00:03:10;;;;;;;45.90;19.33;;;7.90;99.90;;;;;;5076475;28;20051;-62
2023/04/17 00:05:37;;;;;;;56.97;20.25;;;7.90;99.90;;;;;;5075230;28;20098;-62
2023/04/17 00:08:03;;;;;;;53.35;20.55;;;7.90;99.90;;;;;;5076771;28;20103;-62
2023/04/17 00:10:29;;;;;;;62.85;22.45;;;8.00;99.90;;;;;;5076530;28;20032;-62
2023/04/17 00:12:55;;;;;;;48.30;20.70;;;8.00;99.90;;;;;;5076423;28;20024;-62
2023/04/17 00:15:20;;;;;;;52.57;19.00;;;8.00;99.90;;;;;;5076543;28;20035;-62
2023/04/17 00:17:46;;;;;;;48.47;17.70;;;8.00;99.90;;;;;;5075932;28;20099;-62
2023/04/17 00:20:12;;;;;;;59.33;20.67;;;7.90;99.90;;;;;;5076246;28;20419;-76
2023/04/17 00:22:38;;;;;;;54.03;19.57;;;7.90;99.90;;;;;;5075584;28;20016;-62
2023/04/17 00:25:04;;;;;;;39.43;16.73;;;7.90;99.90;;;;;;5076449;28;20029;-62
2023/04/17 00:27:30;;;;;;;39.58;17.95;;;7.90;99.90;;;;;;5075328;28;20107;-62
2023/04/17 00:29:55;;;;;;;34.07;13.70;;;7.80;99.90;;;;;;5064051;28;20404;-77
2023/04/17 00:32:21;;;;;;;41.20;17.63;;;7.70;99.90;;;;;;5075848;28;20127;-62
2023/04/17 00:34:49;;;;;;;33.17;15.00;;;7.70;99.90;;;;;;5075669;28;20058;-61
2023/04/17 00:37:15;;;;;;;33.72;16.00;;;7.70;99.90;;;;;;5075856;28;20025;-64
2023/04/17 00:39:40;;;;;;;36.03;15.75;;;7.70;99.90;;;;;;5075604;28;20356;-62
2023/04/17 00:42:06;;;;;;;48.40;19.20;;;7.70;99.90;;;;;;5075992;28;20064;-76
2023/04/17 00:44:32;;;;;;;54.30;21.47;;;7.70;99.90;;;;;;5075717;28;20028;-62
2023/04/17 00:46:58;;;;;;;52.47;21.57;;;7.80;99.90;;;;;;5076047;28;20410;-62
2023/04/17 00:49:24;;;;;;;44.87;20.80;;;7.70;99.90;;;;;;5075891;28;20063;-62
2023/04/17 00:51:50;;;;;;;56.80;21.48;;;7.80;99.90;;;;;;5075232;28;20082;-62
2023/04/17 00:54:17;;;;;;;37.20;14.33;;;7.80;99.90;;;;;;5075690;28;20408;-62
2023/04/17 00:56:44;;;;;;;48.20;21.77;;;7.80;99.90;;;;;;5075400;28;20087;-62
2023/04/17 00:59:13;;;;;;;45.65;19.30;;;7.90;99.90;;;;;;5074066;28;20109;-62
2023/04/17 01:01:38;;;;;;;37.00;16.92;;;7.70;99.90;;;;;;5075243;28;20120;-62
2023/04/17 01:04:04;;;;;;;32.40;12.90;;;7.70;99.90;;;;;;5075276;28;20099;-62
2023/04/17 01:06:31;;;;;;;44.55;19.23;;;7.70;99.90;;;;;;5075606;28;20032;-62
2023/04/17 01:08:58;;;;;;;43.90;17.40;;;7.70;99.90;;;;;;5075195;28;20032;-62
2023/04/17 01:11:24;;;;;;;24.15;11.48;;;7.60;99.90;;;;;;5075405;28;20366;-76
2023/04/17 01:13:50;;;;;;;52.47;19.47;;;7.70;99.90;;;;;;5075177;28;20024;-62
2023/04/17 01:16:17;;;;;;;47.75;20.10;;;7.70;99.90;;;;;;5061336;28;20412;-62
2023/04/17 01:18:42;;;;;;;24.73;10.50;;;7.70;99.90;;;;;;5075252;28;20085;-62
2023/04/17 01:21:08;;;;;;;44.03;21.27;;;7.70;99.90;;;;;;5074778;28;20028;-63
2023/04/17 01:23:51;;;;;;;42.10;18.57;;;7.60;99.90;;;;;;5075243;28;20026;-62
2023/04/17 01:26:25;;;;;;;42.13;16.40;;;7.70;99.90;;;;;;5074764;28;20020;-75
2023/04/17 01:28:55;;;;;;;38.55;17.33;;;7.70;99.90;;;;;;5074860;28;20069;-61
2023/04/17 01:31:22;;;;;;;40.70;16.80;;;7.70;99.90;;;;;;5073656;28;20024;-62
2023/04/17 01:33:48;;;;;;;39.03;19.10;;;7.70;99.90;;;;;;5075101;28;20108;-62
2023/04/17 01:36:15;;;;;;;46.22;18.23;;;7.70;99.90;;;;;;5073987;28;20423;-62
2023/04/17 01:38:41;;;;;;;46.20;19.30;;;7.70;99.90;;;;;;5075274;28;20024;-62
2023/04/17 01:41:08;;;;;;;37.73;17.13;;;7.70;99.90;;;;;;5074492;28;20044;-77
2023/04/17 01:43:45;;;;;;;45.85;20.08;;;7.70;99.90;;;;;;5075066;28;20013;-62
2023/04/17 01:46:11;;;;;;;47.53;18.50;;;7.80;99.90;;;;;;5074771;28;20047;-62
2023/04/17 01:48:38;;;;;;;41.10;19.30;;;7.70;99.90;;;;;;5074887;28;20415;-62
2023/04/17 01:51:04;;;;;;;39.65;17.00;;;7.70;99.90;;;;;;5073612;28;20045;-61
2023/04/17 01:53:31;;;;;;;43.10;17.45;;;7.70;99.90;;;;;;5073541;28;20032;-62
2023/04/17 01:55:56;;;;;;;38.47;15.70;;;7.60;99.90;;;;;;5074686;28;20393;-62
2023/04/17 01:58:22;;;;;;;34.93;14.10;;;7.60;99.90;;;;;;5075059;28;20033;-62
2023/04/17 02:00:48;;;;;;;37.53;18.03;;;7.70;99.90;;;;;;5074572;28;20024;-62
2023/04/17 02:03:14;;;;;;;43.60;18.47;;;7.70;99.90;;;;;;5074893;28;20031;-62
2023/04/17 02:05:40;;;;;;;50.30;19.33;;;7.70;99.90;;;;;;5074871;28;20348;-62
2023/04/17 02:08:06;;;;;;;42.73;19.47;;;7.70;99.90;;;;;;5074776;28;20020;-62
2023/04/17 02:10:33;;;;;;;38.37;17.70;;;7.70;99.90;;;;;;5074367;28;20416;-62
2023/04/17 02:12:58;;;;;;;32.83;14.02;;;7.70;99.90;;;;;;5074445;28;20101;-63
2023/04/17 02:15:24;;;;;;;40.60;17.97;;;7.70;99.90;;;;;;5075189;28;20111;-77
2023/04/17 02:17:50;;;;;;;40.27;19.90;;;7.70;99.90;;;;;;5074222;28;20415;-62
2023/04/17 02:20:16;;;;;;;39.37;17.63;;;7.70;99.90;;;;;;5074557;28;20069;-62
2023/04/17 02:22:42;;;;;;;44.60;20.73;;;7.80;99.90;;;;;;5073081;28;20020;-77
2023/04/17 02:25:08;;;;;;;48.67;19.98;;;7.80;99.90;;;;;;5073377;28;20017;-62
2023/04/17 02:27:34;;;;;;;45.57;19.77;;;7.70;99.90;;;;;;5074328;28;20028;-62
2023/04/17 02:29:59;;;;;;;41.13;19.03;;;7.80;99.90;;;;;;5074519;28;20071;-62
2023/04/17 02:32:25;;;;;;;47.83;20.90;;;7.80;99.90;;;;;;5074544;28;20415;-76
2023/04/17 02:34:51;;;;;;;48.70;20.03;;;7.90;99.90;;;;;;5074321;28;20020;-62
2023/04/17 02:37:17;;;;;;;41.38;18.73;;;7.90;99.90;;;;;;5074496;28;20036;-62
2023/04/17 02:39:43;;;;;;;40.90;17.50;;;7.90;99.90;;;;;;5074327;28;20043;-62
2023/04/17 02:42:11;;;;;;;40.07;19.00;;;7.90;99.90;;;;;;5073844;28;20024;-63
2023/04/17 02:44:38;;;;;;;38.47;16.10;;;7.80;99.90;;;;;;5074292;28;20064;-61
2023/04/17 02:47:04;;;;;;;36.55;18.63;;;7.80;99.90;;;;;;5075159;28;20323;-62
2023/04/17 02:49:30;;;;;;;38.05;16.98;;;7.70;99.90;;;;;;5078115;28;20024;-62
2023/04/17 02:51:56;;;;;;;33.90;16.13;;;7.80;99.90;;;;;;5077497;28;20091;-62
2023/04/17 02:54:21;;;;;;;41.87;18.17;;;7.80;99.90;;;;;;5077954;28;20024;-62
2023/04/17 02:56:48;;;;;;;36.13;15.30;;;7.90;99.90;;;;;;5077868;28;20052;-62
2023/04/17 02:59:13;;;;;;;43.28;17.75;;;7.90;99.90;;;;;;5077503;28;20024;-62
2023/04/17 03:01:39;;;;;;;38.10;16.80;;;7.90;99.90;;;;;;5077739;28;20029;-61
2023/04/17 03:04:05;;;;;;;35.50;16.73;;;7.90;99.90;;;;;;5077617;28;20048;-62
2023/04/17 03:06:31;;;;;;;33.07;16.63;;;7.90;99.90;;;;;;5077648;28;20443;-75
2023/04/17 03:08:57;;;;;;;35.10;15.90;;;7.80;99.90;;;;;;5077348;28;20029;-62
2023/04/17 03:11:23;;;;;;;31.70;15.43;;;7.80;99.90;;;;;;5077679;28;20318;-62
2023/04/17 03:13:49;;;;;;;33.83;16.77;;;7.80;99.90;;;;;;5077627;28;20048;-62
2023/04/17 03:16:14;;;;;;;37.10;18.00;;;7.80;99.90;;;;;;5077116;28;20308;-62
2023/04/17 03:18:40;;;;;;;38.67;16.53;;;7.80;99.90;;;;;;5077493;28;20020;-63
2023/04/17 03:21:06;;;;;;;33.10;16.73;;;7.90;99.90;;;;;;5076949;28;20288;-75
2023/04/17 03:23:32;;;;;;;37.53;16.55;;;7.90;99.90;;;;;;5077458;28;20031;-67
2023/04/17 03:25:58;;;;;;;37.63;16.17;;;8.00;99.90;;;;;;5075936;28;20319;-62
2023/04/17 03:28:24;;;;;;;35.90;17.33;;;8.00;99.90;;;;;;5077281;28;20094;-62
2023/04/17 03:30:50;;;;;;;38.33;17.20;;;8.00;99.90;;;;;;5077214;28;20021;-62
2023/04/17 03:33:16;;;;;;;30.70;16.50;;;7.90;99.90;;;;;;5076824;28;20099;-76
2023/04/17 03:35:45;;;;;;;30.63;17.10;;;7.90;99.90;;;;;;5077277;28;20459;-62
2023/04/17 03:38:10;;;;;;;40.72;16.88;;;7.80;99.90;;;;;;5077190;28;20107;-61
2023/04/17 03:40:36;;;;;;;26.47;11.53;;;7.80;99.90;;;;;;5076993;28;20655;-62
2023/04/17 03:43:02;;;;;;;38.77;17.23;;;7.80;99.90;;;;;;5077004;28;20062;-62
2023/04/17 03:45:28;;;;;;;30.90;14.97;;;7.80;99.90;;;;;;5076835;28;20021;-61
2023/04/17 03:47:53;;;;;;;41.00;17.77;;;7.80;99.90;;;;;;5077312;28;20073;-62
2023/04/17 03:50:19;;;;;;;31.77;15.13;;;7.80;99.90;;;;;;5076603;28;20342;-63
2023/04/17 03:52:45;;;;;;;34.00;16.83;;;7.90;99.90;;;;;;5075782;28;20323;-62
2023/04/17 03:55:11;;;;;;;40.00;17.37;;;7.90;99.90;;;;;;5076732;28;20518;-61
2023/04/17 03:57:36;;;;;;;41.20;18.77;;;7.90;99.90;;;;;;5076339;28;20419;-62
2023/04/17 04:00:05;;;;;;;34.43;17.43;;;7.80;99.90;;;;;;5076301;28;20024;-62
2023/04/17 04:02:31;;;;;;;37.67;16.98;;;7.90;99.90;;;;;;5076834;28;20025;-62
2023/04/17 04:04:57;;;;;;;35.87;17.53;;;7.90;99.90;;;;;;5077035;28;20429;-62
2023/04/17 04:07:22;;;;;;;30.27;15.87;;;8.00;99.90;;;;;;5076272;28;20016;-76
2023/04/17 04:09:48;;;;;;;36.27;17.13;;;8.00;99.90;;;;;;5076434;28;20500;-62
2023/04/17 04:12:14;;;;;;;30.30;16.70;;;8.00;99.90;;;;;;5076117;28;20024;-62
2023/04/17 04:14:39;;;;;;;37.20;17.73;;;8.00;99.90;;;;;;5076452;28;20052;-62
2023/04/17 04:17:05;;;;;;;43.43;18.53;;;8.00;99.90;;;;;;5076094;28;20345;-72
2023/04/17 04:19:31;;;;;;;38.87;17.93;;;8.00;99.90;;;;;;5076226;28;20407;-62
2023/04/17 04:21:57;;;;;;;39.17;17.63;;;8.00;99.90;;;;;;5076337;28;20028;-62
2023/04/17 04:24:24;;;;;;;35.25;18.20;;;8.00;99.90;;;;;;5075969;28;20025;-62
2023/04/17 04:26:50;;;;;;;;;;;8.00;99.90;;;;;;5076986;28;20385;-62
2023/04/17 04:29:16;;;;;;;29.42;15.00;;;8.00;99.90;;;;;;5075617;28;20003;-62
2023/04/17 04:31:45;;;;;;;39.35;16.90;;;7.90;99.90;;;;;;5075946;28;20031;-62
2023/04/17 04:34:12;;;;;;;35.10;16.05;;;8.00;99.90;;;;;;5075953;28;20023;-62
2023/04/17 04:36:40;;;;;;;39.55;17.05;;;8.00;99.90;;;;;;5075717;28;20017;-62
2023/04/17 04:39:06;;;;;;;38.55;19.13;;;7.90;99.90;;;;;;5075885;28;20052;-62
2023/04/17 04:41:32;;;;;;;40.53;18.83;;;7.90;99.90;;;;;;5075638;28;20028;-74
2023/04/17 04:44:00;;;;;;;37.90;18.17;;;7.90;99.90;;;;;;5075949;28;20039;-62
2023/04/17 04:46:26;;;;;;;49.50;19.70;;;8.00;99.90;;;;;;5075513;28;20309;-62
2023/04/17 04:48:52;;;;;;;39.03;18.83;;;7.90;99.90;;;;;;5075857;28;20324;-62
2023/04/17 04:51:18;;;;;;;46.73;18.97;;;7.90;99.90;;;;;;5075586;28;20021;-63
2023/04/17 04:53:44;;;;;;;43.67;18.67;;;7.90;99.90;;;;;;5075368;28;20036;-62
2023/04/17 04:56:10;;;;;;;35.33;17.48;;;8.00;99.90;;;;;;5075437;28;20021;-62
2023/04/17 04:58:37;;;;;;;38.27;17.93;;;8.00;99.90;;;;;;5075563;28;20021;-74
2023/04/17 05:01:04;;;;;;;37.33;17.25;;;7.90;99.90;;;;;;5075420;28;20436;-62
2023/04/17 05:03:30;;;;;;;41.13;16.77;;;7.80;99.90;;;;;;5075293;28;20025;-62
2023/04/17 05:05:56;;;;;;;40.17;18.63;;;7.90;99.90;;;;;;5075165;28;20028;-62
2023/04/17 05:08:21;;;;;;;41.53;19.63;;;7.80;99.90;;;;;;5075879;28;20033;-62
2023/04/17 05:10:47;;;;;;;44.03;18.97;;;7.80;99.90;;;;;;5074083;28;20404;-62
2023/04/17 05:13:13;;;;;;;39.63;17.67;;;7.90;99.90;;;;;;5075472;28;20103;-62
2023/04/17 05:15:40;;;;;;;39.67;17.87;;;7.90;99.90;;;;;;5075050;28;20091;-62
2023/04/17 05:18:06;;;;;;;39.83;18.58;;;7.90;99.90;;;;;;5075458;28;20033;-62
2023/04/17 05:20:32;;;;;;;43.78;19.30;;;8.00;99.90;;;;;;5074924;28;20352;-62
2023/04/17 05:22:57;;;;;;;45.80;19.60;;;8.00;99.90;;;;;;5075312;28;20071;-62
2023/04/17 05:25:23;;;;;;;43.97;18.63;;;7.90;99.90;;;;;;5075286;28;20411;-62
2023/04/17 05:27:49;;;;;;;39.17;18.83;;;8.00;99.90;;;;;;5074577;28;20293;-62
2023/04/17 05:30:15;;;;;;;44.17;18.70;;;8.00;99.90;;;;;;5075139;28;20039;-62
2023/04/17 05:32:40;;;;;;;39.87;19.23;;;8.10;99.90;;;;;;5074952;28;20028;-62
2023/04/17 05:35:07;;;;;;;44.43;19.73;;;8.10;99.90;;;;;;5074758;28;20032;-65
2023/04/17 05:37:32;;;;;;;45.85;19.73;;;8.10;99.90;;;;;;5075371;28;20062;-62
2023/04/17 05:40:00;;;;;;;43.97;19.53;;;8.10;99.90;;;;;;5074326;28;20092;-62
2023/04/17 05:42:25;;;;;;;49.97;20.10;;;8.10;99.90;;;;;;5073932;28;20027;-76
2023/04/17 05:44:51;;;;;;;44.23;19.83;;;8.10;99.90;;;;;;5074664;28;20032;-62
2023/04/17 05:47:18;;;;;;;45.83;20.20;;;8.10;99.90;;;;;;5074815;28;20030;-62
2023/04/17 05:49:43;;;;;;;49.65;19.48;;;8.00;99.90;;;;;;5074813;28;20047;-62
2023/04/17 05:52:09;;;;;;;41.67;20.40;;;8.10;99.90;;;;;;5061118;28;20323;-63
2023/04/17 05:54:35;;;;;;;49.47;20.73;;;8.20;99.90;;;;;;5075236;28;20043;-62
2023/04/17 05:57:02;;;;;;;43.77;20.87;;;8.20;99.90;;;;;;5074643;28;20475;-75
2023/04/17 05:59:27;;;;;;;47.97;20.48;;;8.20;99.90;;;;;;5074757;28;20036;-72
2023/04/17 06:01:53;;;;;;;40.77;20.13;;;8.20;99.90;;;;;;5074532;28;20403;-62
2023/04/17 06:04:19;;;;;;;47.30;21.43;;;8.20;99.90;;;;;;5073769;28;20028;-62
2023/04/17 06:06:45;;;;;;;41.63;19.07;;;8.20;99.90;;;;;;5074545;28;20024;-62
2023/04/17 06:09:10;;;;;;;36.23;19.23;;;8.20;99.90;;;;;;5075138;28;20020;-62
2023/04/17 06:11:36;;;;;;;40.57;20.57;;;8.20;99.90;;;;;;5075240;28;20037;-62
2023/04/17 06:14:02;;;;;;;39.70;19.67;;;8.10;99.90;;;;;;5074252;28;20026;-62
2023/04/17 06:16:27;;;;;;;52.50;19.63;;;8.20;99.90;;;;;;5074593;28;20048;-62
2023/04/17 06:18:53;;;;;;;40.77;18.70;;;8.20;99.90;;;;;;5074543;28;20031;-62
2023/04/17 06:21:20;;;;;;;50.27;21.03;;;8.20;99.90;;;;;;5075594;28;20032;-62
2023/04/17 06:23:45;;;;;;;42.35;18.15;;;8.20;99.90;;;;;;5078355;28;20055;-62
2023/04/17 06:26:11;;;;;;;42.00;21.23;;;8.30;99.90;;;;;;5078348;28;20067;-72
2023/04/17 06:28:37;;;;;;;37.90;17.80;;;8.30;99.90;;;;;;5078542;28;20048;-62
2023/04/17 06:31:02;;;;;;;41.17;19.33;;;8.20;99.90;;;;;;5077835;28;20437;-62
2023/04/17 06:33:28;;;;;;;41.50;18.60;;;8.20;99.90;;;;;;5078795;28;20067;-62
2023/04/17 06:35:54;;;;;;;35.00;15.67;;;8.20;99.90;;;;;;5078414;28;20024;-76
2023/04/17 06:38:20;;;;;;;46.83;20.55;;;8.10;99.90;;;;;;5078254;28;20021;-62
2023/04/17 06:40:46;;;;;;;52.00;20.63;;;8.10;99.90;;;;;;5078354;28;20111;-62
2023/04/17 06:43:15;;;;;;;50.10;19.83;;;8.10;99.90;;;;;;5078010;28;20475;-62
2023/04/17 06:45:43;;;;;;;45.28;19.08;;;8.10;99.90;;;;;;5078261;28;20021;-62
2023/04/17 06:48:09;;;;;;;49.58;21.05;;;8.10;99.90;;;;;;5076580;28;20354;-62
2023/04/17 06:50:34;;;;;;;51.53;22.80;;;8.10;99.90;;;;;;5078267;28;20021;-62
2023/04/17 06:53:00;;;;;;;52.80;21.90;;;8.10;99.90;;;;;;5076750;28;20025;-62
2023/04/17 06:55:26;;;;;;;51.13;21.17;;;8.10;99.90;;;;;;5077550;28;20395;-62
2023/04/17 06:57:53;;;;;;;52.67;21.90;;;8.10;99.90;;;;;;5078228;28;20056;-62
2023/04/17 07:00:19;;;;;;;47.80;18.75;;;8.10;99.90;;;;;;5077340;28;20013;-72
2023/04/17 07:02:45;;;;;;;50.33;22.88;;;8.20;99.90;;;;;;5077813;28;20066;-62
2023/04/17 07:05:12;;;;;;;47.20;18.80;;;8.20;99.90;;;;;;5077491;28;20032;-62
2023/04/17 07:07:38;;;;;;;57.85;21.40;;;8.20;99.90;;;;;;5077614;28;20033;-62
2023/04/17 07:10:05;;;;;;;52.10;22.42;;;8.20;99.90;;;;;;5077859;28;20056;-62
2023/04/17 07:12:31;;;;;;;;;;;8.20;99.90;;;;;;5076544;28;20127;-62
2023/04/17 07:14:57;;;;;;;34.97;16.00;;;8.20;99.90;;;;;;5077858;28;19912;-62
2023/04/17 07:17:23;;;;;;;53.70;22.20;;;8.20;99.90;;;;;;5077182;28;20477;-67
2023/04/17 07:19:48;;;;;;;52.87;21.47;;;8.20;99.90;;;;;;5077381;28;20059;-62
2023/04/17 07:22:14;;;;;;;49.50;18.83;;;8.20;99.90;;;;;;5077005;28;20025;-62
2023/04/17 07:24:40;;;;;;;52.40;21.80;;;8.20;99.90;;;;;;5077520;28;20066;-62
2023/04/17 07:27:06;;;;;;;48.50;20.27;;;8.20;99.90;;;;;;5077464;28;20020;-76
2023/04/17 07:29:32;;;;;;;35.07;14.53;;;8.20;99.90;;;;;;5076767;28;20048;-62
2023/04/17 07:31:58;;;;;;;40.88;17.77;;;8.20;99.90;;;;;;5077243;28;20284;-62
2023/04/17 07:34:25;;;;;;;49.65;21.30;;;8.30;99.90;;;;;;5076542;28;20063;-62
2023/04/17 07:36:51;;;;;;;41.22;18.85;;;8.30;99.90;;;;;;5063561;28;20032;-63
2023/04/17 07:39:18;;;;;;;45.97;18.73;;;8.30;99.90;;;;;;5077465;28;20040;-62
2023/04/17 07:41:43;;;;;;;47.28;21.27;;;8.30;99.90;;;;;;5076695;28;20091;-62
2023/04/17 07:44:09;;;;;;;42.50;17.57;;;8.30;99.90;;;;;;5077130;28;20025;-62
2023/04/17 07:46:35;;;;;;;50.20;19.70;;;8.30;99.90;;;;;;5076577;28;20032;-62
2023/04/17 07:49:01;;;;;;;39.77;18.93;;;8.20;99.90;;;;;;5077112;28;20017;-62
2023/04/17 07:51:28;;;;;;;50.63;20.53;;;8.30;99.90;;;;;;5076794;28;20036;-62
2023/04/17 07:53:54;;;;;;;37.58;17.98;;;8.20;99.90;;;;;;5076823;28;20264;-62
2023/04/17 07:56:20;;;;;;;43.05;19.48;;;8.20;99.90;;;;;;5076774;28;20047;-62
2023/04/17 07:58:45;;;;;;;38.00;17.77;;;8.30;99.90;;;;;;5076311;28;20025;-62
2023/04/17 08:01:11;;;;;;;39.87;17.23;;;8.30;99.90;;;;;;5076521;28;20020;-62
2023/04/17 08:03:40;;;;;;;39.83;16.70;;;8.40;99.90;;;;;;5076424;28;20029;-62
2023/04/17 08:06:06;;;;;;;30.48;13.50;;;8.40;99.90;;;;;;5076619;28;20044;-61
2023/04/17 08:08:31;;;;;;;40.20;17.40;;;8.50;99.90;;;;;;5075057;28;20110;-62
2023/04/17 08:10:57;;;;;;;27.53;14.00;;;8.40;99.90;;;;;;5076443;28;20257;-62
2023/04/17 08:13:23;;;;;;;29.87;15.03;;;8.40;99.90;;;;;;5076495;28;20031;-63
2023/04/17 08:15:50;;;;;;;30.93;15.33;;;8.60;99.90;;;;;;5076104;28;20032;-61
2023/04/17 08:18:16;;;;;;;41.10;16.88;;;8.60;99.90;;;;;;5076410;28;20036;-77
2023/04/17 08:20:42;;;;;;;30.67;13.73;;;8.80;99.90;;;;;;5075781;28;20082;-62
2023/04/17 08:23:08;;;;;;;24.57;12.40;;;8.80;99.90;;;;;;5076631;28;20034;-62
2023/04/17 08:25:33;;;;;;;26.97;11.87;;;8.80;99.90;;;;;;5076138;28;20347;-62
2023/04/17 08:27:59;;;;;;;27.43;14.07;;;8.80;99.90;;;;;;5076086;28;20092;-63
2023/04/17 08:30:25;;;;;;;33.97;15.97;;;8.80;99.90;;;;;;5076220;28;20032;-62
2023/04/17 08:32:51;;;;;;;33.10;14.53;;;8.80;99.90;;;;;;5075755;28;20053;-62
2023/04/17 08:35:17;;;;;;;30.17;14.10;;;8.80;99.90;;;;;;5075126;28;20037;-64
2023/04/17 08:37:47;;;;;;;32.13;15.35;;;8.80;99.90;;;;;;5076039;28;20024;-62
2023/04/17 08:40:13;;;;;;;26.90;13.50;;;8.80;99.90;;;;;;5075593;28;20029;-62
2023/04/17 08:42:40;;;;;;;26.23;13.13;;;8.80;99.90;;;;;;5075666;28;20465;-62
2023/04/17 08:45:09;;;;;;;30.75;13.15;;;8.80;99.90;;;;;;5074209;28;20029;-63
2023/04/17 08:47:35;;;;;;;24.00;11.00;;;8.80;99.90;;;;;;5074621;28;20119;-62
2023/04/17 08:50:10;;;;;;;30.58;15.07;;;8.70;99.90;;;;;;5075485;28;20035;-62
2023/04/17 08:52:45;;;;;;;25.15;11.95;;;8.70;99.90;;;;;;5075824;28;20036;-62
2023/04/17 08:55:19;;;;;;;33.05;14.88;;;8.70;99.90;;;;;;5075223;28;20025;-63
2023/04/17 08:57:57;;;;;;;29.38;12.48;;;8.70;99.90;;;;;;5075634;28;20048;-62
2023/04/17 09:00:28;;;;;;;33.00;15.93;;;8.70;99.90;;;;;;5075101;28;20285;-62
2023/04/17 09:02:55;;;;;;;33.58;16.67;;;8.70;99.90;;;;;;5075513;28;20052;-62
2023/04/17 09:05:22;;;;;;;26.90;13.07;;;8.80;99.90;;;;;;5075190;28;20024;-63
2023/04/17 09:08:12;;;;;;;24.23;13.05;;;8.80;99.90;;;;;;5075400;28;20012;-62
2023/04/17 09:10:42;;;;;;;26.73;13.82;;;8.90;99.90;;;;;;5075225;28;20349;-63
2023/04/17 09:13:09;;;;;;;29.90;13.82;;;9.10;99.90;;;;;;5075361;28;20029;-63
2023/04/17 09:15:35;;;;;;;;;;;9.10;99.90;;;;;;5075355;28;20025;-62
2023/04/17 09:18:01;;;;;;;29.85;13.85;;;9.10;99.90;;;;;;5075274;28;19908;-62
2023/04/17 09:20:27;;;;;;;30.30;15.20;;;9.30;99.90;;;;;;5074660;28;20493;-62
2023/04/17 09:23:01;;;;;;;28.07;13.83;;;9.30;99.90;;;;;;5075088;28;20028;-62
2023/04/17 09:25:28;;;;;;;28.45;14.20;;;9.50;99.90;;;;;;5074893;28;20207;-62
2023/04/17 09:27:55;;;;;;;28.17;15.20;;;9.80;99.90;;;;;;5074953;28;20013;-63
2023/04/17 09:30:23;;;;;;;16.30;8.70;;;9.90;99.90;;;;;;5075120;28;20078;-75
2023/04/17 09:33:02;;;;;;;25.08;12.55;;;9.80;99.90;;;;;;5074652;28;20059;-62
2023/04/17 09:35:28;;;;;;;29.50;15.15;;;9.90;99.90;;;;;;5074990;28;20044;-63
2023/04/17 09:37:58;;;;;;;32.47;15.50;;;10.10;99.90;;;;;;5074696;28;20028;-62
2023/04/17 09:40:24;;;;;;;24.88;14.57;;;10.20;99.90;;;;;;5074883;28;20116;-62
2023/04/17 09:42:54;;;;;;;25.17;13.25;;;10.10;99.90;;;;;;5075125;28;20024;-62
2023/04/17 09:45:21;;;;;;;17.27;8.45;;;9.90;99.90;;;;;;5074484;28;20044;-62
2023/04/17 09:47:47;;;;;;;;;;;9.80;99.90;;;;;;5075477;28;20089;-62
2023/04/17 09:50:17;;;;;;;27.55;13.30;;;9.70;99.90;;;;;;5074440;28;19911;-62
2023/04/17 09:52:43;;;;;;;35.20;14.13;;;9.80;99.90;;;;;;5075075;28;20029;-62
2023/04/17 09:55:11;;;;;;;33.97;12.40;;;9.90;99.90;;;;;;5074178;28;20020;-62
2023/04/17 09:57:40;;;;;;;17.90;8.70;;;9.90;99.90;;;;;;5074477;28;20443;-77
2023/04/17 10:00:13;;;;;;;24.17;13.98;;;10.00;99.90;;;;;;5074608;28;20157;-62
2023/04/17 10:02:41;;;;;;;25.27;14.48;;;10.20;99.90;;;;;;5073746;28;20070;-62
2023/04/17 10:05:09;;;;;;;22.08;11.77;;;10.30;99.90;;;;;;5074359;28;20031;-76
2023/04/17 10:07:35;;;;;;;26.17;14.65;;;10.50;99.90;;;;;;5074566;28;20027;-62
2023/04/17 10:10:08;;;;;;;27.95;12.48;;;10.60;99.90;;;;;;5074620;28;20056;-62
2023/04/17 10:12:37;;;;;;;25.17;10.70;;;10.60;99.90;;;;;;5060959;28;20095;-85
2023/04/17 10:15:06;;;;;;;24.33;11.07;;;10.30;99.90;;;;;;5074708;28;20108;-62
2023/04/17 10:17:35;;;;;;;29.30;13.77;;;10.20;99.90;;;;;;5074366;28;20021;-62
2023/04/17 10:20:18;;;;;;;31.35;14.80;;;10.30;99.90;;;;;;5074292;28;20019;-76
2023/04/17 10:22:48;;;;;;;35.85;16.13;;;10.10;99.90;;;;;;5074255;28;20052;-62
2023/04/17 10:25:13;;;;;;;27.17;13.07;;;10.20;99.90;;;;;;5074492;28;20033;-62
2023/04/17 10:27:39;;;;;;;27.23;9.53;;;10.40;99.90;;;;;;5074256;28;20017;-62
2023/04/17 10:30:13;;;;;;;17.63;7.20;;;10.10;99.90;;;;;;5074291;28;20075;-63
2023/04/17 10:32:41;;;;;;;22.20;10.57;;;10.00;99.90;;;;;;5074518;28;20056;-62
2023/04/17 10:35:16;;;;;;;30.58;13.95;;;9.80;99.90;;;;;;5073941;28;20119;-75
2023/04/17 10:37:50;;;;;;;26.17;13.35;;;9.80;99.90;;;;;;5074721;28;20112;-62
2023/04/17 10:40:20;;;;;;;23.70;13.00;;;9.70;99.90;;;;;;5060274;28;20407;-62
2023/04/17 10:43:07;;;;;;;34.97;14.35;;;9.80;99.90;;;;;;5074383;28;20373;-62
2023/04/17 10:45:51;;;;;;;;;;;9.90;99.90;;;;;;5072864;28;20166;-62
2023/04/17 10:48:34;;;;;;;27.95;13.48;;;10.20;99.90;;;;;;5073441;28;20049;-63
2023/04/17 10:51:19;;;;;;;24.23;11.77;;;10.50;99.90;;;;;;5064008;28;20463;-62
2023/04/17 10:53:46;;;;;;;28.05;13.52;;;10.80;99.90;;;;;;5058126;28;20079;-62
2023/04/17 10:56:16;;;;;;;;;;;11.00;99.90;;;;;;5073994;28;20032;-62
2023/04/17 10:59:00;;;;;;;32.15;14.80;;;11.00;99.90;;;;;;5072054;28;19985;-62
2023/04/17 11:01:35;;;;;;;18.80;10.00;;;10.70;99.90;;;;;;5073411;28;20047;-62
2023/04/17 11:04:02;;;;;;;19.40;9.00;;;10.70;99.90;;;;;;5068587;28;20431;-62
2023/04/17 11:06:31;;;;;;;27.08;12.90;;;10.40;99.90;;;;;;5072475;28;20039;-62
2023/04/17 11:08:58;;;;;;;32.00;15.75;;;10.50;99.90;;;;;;5075195;28;20050;-62
2023/04/17 11:11:26;;;;;;;29.95;16.33;;;10.70;99.90;;;;;;5076741;28;20032;-62
2023/04/17 11:13:52;;;;;;;27.52;12.23;;;10.80;99.90;;;;;;5076853;28;20030;-63
2023/04/17 11:16:19;;;;;;;26.70;15.40;;;10.90;99.90;;;;;;5077074;28;20086;-62
2023/04/17 11:18:47;;;;;;;18.73;8.88;;;11.00;99.90;;;;;;5076830;28;20037;-63
2023/04/17 11:21:14;;;;;;;15.40;8.63;;;11.00;99.90;;;;;;5076684;28;20028;-63
2023/04/17 11:23:40;;;;;;;6.90;4.82;;;10.90;99.90;;;;;;5076680;28;20300;-63
2023/04/17 11:26:06;;;;;;;28.47;12.63;;;10.70;99.90;;;;;;5076485;28;20088;-63
2023/04/17 11:28:35;;;;;;;26.90;13.52;;;10.50;99.90;;;;;;5076469;28;20102;-63
2023/04/17 11:31:02;;;;;;;29.67;13.40;;;10.80;99.90;;;;;;5076440;28;20415;-62
2023/04/17 11:33:35;;;;;;;22.00;9.30;;;10.90;99.90;;;;;;5076671;28;20111;-63
2023/04/17 11:36:01;;;;;;;20.25;11.65;;;10.70;99.90;;;;;;5075373;28;20029;-63
2023/04/17 11:38:27;;;;;;;20.83;9.77;;;10.80;99.90;;;;;;5076099;28;20480;-63
2023/04/17 11:40:54;;;;;;;19.97;9.67;;;10.60;99.90;;;;;;5076359;28;20361;-63
2023/04/17 11:43:22;;;;;;;30.25;15.75;;;10.70;99.90;;;;;;5076121;28;20020;-62
2023/04/17 11:45:51;;;;;;;31.45;14.88;;;10.90;99.90;;;;;;5076192;28;20126;-63
2023/04/17 11:48:21;;;;;;;26.38;13.00;;;10.80;99.90;;;;;;5076083;28;20017;-62
2023/04/17 11:50:53;;;;;;;25.50;13.30;;;10.90;99.90;;;;;;5076315;28;20028;-62
2023/04/17 11:53:19;;;;;;;25.55;14.52;;;11.00;99.90;;;;;;5076041;28;20039;-62
2023/04/17 11:55:45;;;;;;;26.55;12.27;;;10.70;99.90;;;;;;5076445;28;20024;-62
2023/04/17 11:58:12;;;;;;;25.87;13.70;;;10.70;99.90;;;;;;5076065;28;20618;-63
2023/04/17 12:00:39;;;;;;;24.27;12.88;;;10.90;99.90;;;;;;5075820;28;20327;-64
2023/04/17 12:03:32;;;;;;;24.30;11.82;;;11.10;99.90;;;;;;5076044;28;20027;-62
2023/04/17 12:06:03;;;;;;;19.33;9.98;;;10.90;99.90;;;;;;5063829;28;20036;-66
2023/04/17 12:08:30;;;;;;;26.65;13.70;;;10.90;99.90;;;;;;5075884;28;20028;-62
2023/04/17 12:10:56;;;;;;;;;;;11.00;99.90;;;;;;5076265;28;20103;-63
2023/04/17 12:13:23;;;;;;;30.98;16.52;;;11.20;99.90;;;;;;5075792;28;19951;-67
2023/04/17 12:15:49;;;;;;;24.63;12.77;;;11.20;99.90;;;;;;5075746;28;20028;-63
2023/04/17 12:18:15;;;;;;;33.42;15.68;;;11.20;99.90;;;;;;5075395;28;20108;-62
2023/04/17 12:20:41;;;;;;;25.88;13.70;;;11.40;99.90;;;;;;5075259;28;20027;-62
2023/04/17 12:23:07;;;;;;;18.00;8.17;;;11.30;99.90;;;;;;5075070;28;20107;-78
2023/04/17 12:25:33;;;;;;;23.27;10.20;;;11.10;99.90;;;;;;5074288;28;20475;-62
2023/04/17 12:28:03;;;;;;;36.87;11.73;;;11.00;99.90;;;;;;5075411;28;20254;-62
2023/04/17 12:30:29;;;;;;;30.30;15.07;;;10.90;99.90;;;;;;5075845;28;20023;-63
2023/04/17 12:32:55;;;;;;;29.98;15.73;;;11.20;99.90;;;;;;5075895;28;20029;-62
2023/04/17 12:35:22;;;;;;;17.93;8.13;;;11.20;99.90;;;;;;5075992;28;20044;-63
2023/04/17 12:37:50;;;;;;;27.00;13.25;;;11.00;99.90;;;;;;5076067;28;20028;-62